Terminal Aerodrome Forecast
Issued by NWS

Home | Current Version | Previous Version | Text Only | Print | Product List | Glossary On
Versions: 1 2 3 4 5 6 7 8 9 10 11 12 13 14 15
431
FTUS43 KGRR 272349
TAFLAN
TAF
KLAN 272349Z 2800/2824 17007KT P6SM BKN060
     FM280600 16006KT P6SM BKN035
     FM281000 15008KT 5SM -SHRA BR OVC030
     FM281200 16010KT 3SM -SHRA BR OVC015
     FM281700 18011KT 5SM BR OVC008=

USA.gov is the U.S. government's official web portal to all federal, state and local government web resources and services.